sensor_id;sensor_type;location;lat;lon;timestamp;temperature;humidity
43808;DHT22;29438;50.664;10.098;2023-05-07T00:00:19;12.70;83.20
43808;DHT22;29438;50.664;10.098;2023-05-07T00:02:45;12.60;83.00
43808;DHT22;29438;50.664;10.098;2023-05-07T00:05:11;12.60;83.10
43808;DHT22;29438;50.664;10.098;2023-05-07T00:07:37;12.70;83.20
43808;DHT22;29438;50.664;10.098;2023-05-07T00:10:03;12.60;83.40
43808;DHT22;29438;50.664;10.098;2023-05-07T00:12:29;12.70;83.40
43808;DHT22;29438;50.664;10.098;2023-05-07T00:14:59;12.70;83.20
43808;DHT22;29438;50.664;10.098;2023-05-07T00:17:25;12.70;83.20
43808;DHT22;29438;50.664;10.098;2023-05-07T00:19:50;12.80;82.90
43808;DHT22;29438;50.664;10.098;2023-05-07T00:22:16;12.80;82.70
43808;DHT22;29438;50.664;10.098;2023-05-07T00:24:41;12.80;82.80
43808;DHT22;29438;50.664;10.098;2023-05-07T00:27:07;12.70;83.00
43808;DHT22;29438;50.664;10.098;2023-05-07T00:29:33;12.60;83.20
43808;DHT22;29438;50.664;10.098;2023-05-07T00:31:58;12.50;83.60
43808;DHT22;29438;50.664;10.098;2023-05-07T00:34:24;12.50;84.00
43808;DHT22;29438;50.664;10.098;2023-05-07T00:36:49;12.50;84.00
43808;DHT22;29438;50.664;10.098;2023-05-07T00:39:15;12.50;84.20
43808;DHT22;29438;50.664;10.098;2023-05-07T00:41:40;12.50;84.40
43808;DHT22;29438;50.664;10.098;2023-05-07T00:44:06;12.50;84.80
43808;DHT22;29438;50.664;10.098;2023-05-07T00:46:32;12.60;85.00
43808;DHT22;29438;50.664;10.098;2023-05-07T00:48:58;12.50;85.10
43808;DHT22;29438;50.664;10.098;2023-05-07T00:51:25;12.60;85.20
43808;DHT22;29438;50.664;10.098;2023-05-07T00:53:53;12.50;85.10
43808;DHT22;29438;50.664;10.098;2023-05-07T00:56:20;12.50;84.70
43808;DHT22;29438;50.664;10.098;2023-05-07T00:58:46;12.50;84.70
43808;DHT22;29438;50.664;10.098;2023-05-07T01:01:12;12.50;85.00
43808;DHT22;29438;50.664;10.098;2023-05-07T01:03:38;12.50;84.90
43808;DHT22;29438;50.664;10.098;2023-05-07T01:06:04;12.40;85.10
43808;DHT22;29438;50.664;10.098;2023-05-07T01:08:31;12.40;85.10
43808;DHT22;29438;50.664;10.098;2023-05-07T01:10:57;12.30;85.30
43808;DHT22;29438;50.664;10.098;2023-05-07T01:13:24;12.30;85.50
43808;DHT22;29438;50.664;10.098;2023-05-07T01:15:50;12.40;86.00
43808;DHT22;29438;50.664;10.098;2023-05-07T01:18:16;12.40;86.20
43808;DHT22;29438;50.664;10.098;2023-05-07T01:20:42;12.40;86.10
43808;DHT22;29438;50.664;10.098;2023-05-07T01:23:07;12.40;86.00
43808;DHT22;29438;50.664;10.098;2023-05-07T01:25:34;12.40;86.40
43808;DHT22;29438;50.664;10.098;2023-05-07T01:28:00;12.40;86.30
43808;DHT22;29438;50.664;10.098;2023-05-07T01:30:27;12.40;86.20
43808;DHT22;29438;50.664;10.098;2023-05-07T01:33:08;12.40;86.30
43808;DHT22;29438;50.664;10.098;2023-05-07T01:35:39;12.40;86.00
43808;DHT22;29438;50.664;10.098;2023-05-07T01:38:05;12.30;85.70
43808;DHT22;29438;50.664;10.098;2023-05-07T01:40:32;12.30;85.70
43808;DHT22;29438;50.664;10.098;2023-05-07T01:42:59;12.30;85.90
43808;DHT22;29438;50.664;10.098;2023-05-07T01:45:25;12.30;85.90
43808;DHT22;29438;50.664;10.098;2023-05-07T01:47:51;12.30;85.90
43808;DHT22;29438;50.664;10.098;2023-05-07T01:50:19;12.20;85.90
43808;DHT22;29438;50.664;10.098;2023-05-07T01:52:45;12.20;86.00
43808;DHT22;29438;50.664;10.098;2023-05-07T01:55:11;12.20;86.00
43808;DHT22;29438;50.664;10.098;2023-05-07T01:57:37;12.20;86.20
43808;DHT22;29438;50.664;10.098;2023-05-07T02:00:03;12.20;86.30
43808;DHT22;29438;50.664;10.098;2023-05-07T02:02:30;12.10;86.40
43808;DHT22;29438;50.664;10.098;2023-05-07T02:04:56;12.00;86.40
43808;DHT22;29438;50.664;10.098;2023-05-07T02:07:21;12.10;86.40
43808;DHT22;29438;50.664;10.098;2023-05-07T02:09:47;12.10;86.80
43808;DHT22;29438;50.664;10.098;2023-05-07T02:12:12;12.00;86.80
43808;DHT22;29438;50.664;10.098;2023-05-07T02:14:38;12.00;86.90
43808;DHT22;29438;50.664;10.098;2023-05-07T02:17:03;12.10;87.10
43808;DHT22;29438;50.664;10.098;2023-05-07T02:19:29;12.00;87.10
43808;DHT22;29438;50.664;10.098;2023-05-07T02:21:54;12.00;87.10
43808;DHT22;29438;50.664;10.098;2023-05-07T02:24:20;12.00;87.20
43808;DHT22;29438;50.664;10.098;2023-05-07T02:26:46;11.90;87.10
43808;DHT22;29438;50.664;10.098;2023-05-07T02:29:11;11.90;87.30
43808;DHT22;29438;50.664;10.098;2023-05-07T02:31:37;11.90;87.50
43808;DHT22;29438;50.664;10.098;2023-05-07T02:34:02;11.80;87.70
43808;DHT22;29438;50.664;10.098;2023-05-07T02:36:28;11.70;87.80
43808;DHT22;29438;50.664;10.098;2023-05-07T02:38:53;11.70;87.90
43808;DHT22;29438;50.664;10.098;2023-05-07T02:41:19;11.80;88.00
43808;DHT22;29438;50.664;10.098;2023-05-07T02:43:45;11.80;88.00
43808;DHT22;29438;50.664;10.098;2023-05-07T02:46:11;11.70;88.30
43808;DHT22;29438;50.664;10.098;2023-05-07T02:48:36;11.70;88.40
43808;DHT22;29438;50.664;10.098;2023-05-07T02:51:02;11.60;88.60
43808;DHT22;29438;50.664;10.098;2023-05-07T02:53:28;11.60;88.80
43808;DHT22;29438;50.664;10.098;2023-05-07T02:55:57;11.50;89.10
43808;DHT22;29438;50.664;10.098;2023-05-07T02:58:23;11.50;89.30
43808;DHT22;29438;50.664;10.098;2023-05-07T03:00:49;11.40;89.40
43808;DHT22;29438;50.664;10.098;2023-05-07T03:03:15;11.40;89.60
43808;DHT22;29438;50.664;10.098;2023-05-07T03:05:41;11.40;89.70
43808;DHT22;29438;50.664;10.098;2023-05-07T03:08:07;11.40;89.70
43808;DHT22;29438;50.664;10.098;2023-05-07T03:10:33;11.40;89.80
43808;DHT22;29438;50.664;10.098;2023-05-07T03:12:58;11.40;89.80
43808;DHT22;29438;50.664;10.098;2023-05-07T03:15:24;11.50;89.90
43808;DHT22;29438;50.664;10.098;2023-05-07T03:17:49;11.40;90.00
43808;DHT22;29438;50.664;10.098;2023-05-07T03:20:15;11.30;90.10
43808;DHT22;29438;50.664;10.098;2023-05-07T03:22:40;11.30;90.20
43808;DHT22;29438;50.664;10.098;2023-05-07T03:25:07;11.30;90.20
43808;DHT22;29438;50.664;10.098;2023-05-07T03:27:32;11.40;90.30
43808;DHT22;29438;50.664;10.098;2023-05-07T03:29:58;11.30;90.20
43808;DHT22;29438;50.664;10.098;2023-05-07T03:32:23;11.30;90.20
43808;DHT22;29438;50.664;10.098;2023-05-07T03:34:49;11.30;90.20
43808;DHT22;29438;50.664;10.098;2023-05-07T03:37:15;11.30;90.30
43808;DHT22;29438;50.664;10.098;2023-05-07T03:39:40;11.30;90.30
43808;DHT22;29438;50.664;10.098;2023-05-07T03:42:06;11.30;90.20
43808;DHT22;29438;50.664;10.098;2023-05-07T03:44:31;11.30;90.30
43808;DHT22;29438;50.664;10.098;2023-05-07T03:46:57;11.30;90.30
43808;DHT22;29438;50.664;10.098;2023-05-07T03:49:22;11.30;90.30
43808;DHT22;29438;50.664;10.098;2023-05-07T03:51:48;11.30;90.30
43808;DHT22;29438;50.664;10.098;2023-05-07T03:54:13;11.30;90.30
43808;DHT22;29438;50.664;10.098;2023-05-07T03:56:39;11.30;90.40
43808;DHT22;29438;50.664;10.098;2023-05-07T03:59:05;11.20;90.40
43808;DHT22;29438;50.664;10.098;2023-05-07T04:01:30;11.20;90.50
43808;DHT22;29438;50.664;10.098;2023-05-07T04:03:56;11.30;90.50
43808;DHT22;29438;50.664;10.098;2023-05-07T04:06:21;11.30;90.40
43808;DHT22;29438;50.664;10.098;2023-05-07T04:08:47;11.30;90.40
43808;DHT22;29438;50.664;10.098;2023-05-07T04:11:13;11.30;90.50
43808;DHT22;29438;50.664;10.098;2023-05-07T04:13:38;11.30;90.60
43808;DHT22;29438;50.664;10.098;2023-05-07T04:16:05;11.30;90.50
43808;DHT22;29438;50.664;10.098;2023-05-07T04:18:30;11.30;90.50
43808;DHT22;29438;50.664;10.098;2023-05-07T04:20:56;11.30;90.50
43808;DHT22;29438;50.664;10.098;2023-05-07T04:23:21;11.40;90.40
43808;DHT22;29438;50.664;10.098;2023-05-07T04:25:47;11.40;90.30
43808;DHT22;29438;50.664;10.098;2023-05-07T04:28:12;11.50;90.10
43808;DHT22;29438;50.664;10.098;2023-05-07T04:30:38;11.50;89.90
43808;DHT22;29438;50.664;10.098;2023-05-07T04:33:04;11.60;89.70
43808;DHT22;29438;50.664;10.098;2023-05-07T04:35:29;11.70;89.60
43808;DHT22;29438;50.664;10.098;2023-05-07T04:37:55;11.80;89.40
43808;DHT22;29438;50.664;10.098;2023-05-07T04:40:20;11.80;89.00
43808;DHT22;29438;50.664;10.098;2023-05-07T04:42:46;11.80;88.90
43808;DHT22;29438;50.664;10.098;2023-05-07T04:45:12;11.80;88.90
43808;DHT22;29438;50.664;10.098;2023-05-07T04:47:38;11.90;88.90
43808;DHT22;29438;50.664;10.098;2023-05-07T04:50:04;11.90;88.90
43808;DHT22;29438;50.664;10.098;2023-05-07T04:52:29;12.00;88.70
43808;DHT22;29438;50.664;10.098;2023-05-07T04:54:55;12.00;88.60
43808;DHT22;29438;50.664;10.098;2023-05-07T04:57:21;12.00;88.40
43808;DHT22;29438;50.664;10.098;2023-05-07T04:59:46;11.90;88.60
43808;DHT22;29438;50.664;10.098;2023-05-07T05:02:12;11.90;88.40
43808;DHT22;29438;50.664;10.098;2023-05-07T05:04:37;12.00;88.50
43808;DHT22;29438;50.664;10.098;2023-05-07T05:07:03;12.10;88.30
43808;DHT22;29438;50.664;10.098;2023-05-07T05:09:29;12.20;88.30
43808;DHT22;29438;50.664;10.098;2023-05-07T05:11:55;12.20;87.90
43808;DHT22;29438;50.664;10.098;2023-05-07T05:14:21;12.20;87.90
43808;DHT22;29438;50.664;10.098;2023-05-07T05:16:46;12.30;87.50
43808;DHT22;29438;50.664;10.098;2023-05-07T05:19:12;12.40;87.50
43808;DHT22;29438;50.664;10.098;2023-05-07T05:21:37;12.50;87.10
43808;DHT22;29438;50.664;10.098;2023-05-07T05:24:03;12.60;86.70
43808;DHT22;29438;50.664;10.098;2023-05-07T05:26:28;12.70;86.60
43808;DHT22;29438;50.664;10.098;2023-05-07T05:28:54;12.70;86.40
43808;DHT22;29438;50.664;10.098;2023-05-07T05:31:19;12.90;86.00
43808;DHT22;29438;50.664;10.098;2023-05-07T05:33:45;13.00;85.40
43808;DHT22;29438;50.664;10.098;2023-05-07T05:36:10;13.10;85.00
43808;DHT22;29438;50.664;10.098;2023-05-07T05:38:37;13.10;85.00
43808;DHT22;29438;50.664;10.098;2023-05-07T05:41:03;13.10;84.70
43808;DHT22;29438;50.664;10.098;2023-05-07T05:43:28;13.00;85.00
43808;DHT22;29438;50.664;10.098;2023-05-07T05:45:55;13.10;85.10
43808;DHT22;29438;50.664;10.098;2023-05-07T05:48:21;13.00;85.00
43808;DHT22;29438;50.664;10.098;2023-05-07T05:50:46;12.90;85.20
43808;DHT22;29438;50.664;10.098;2023-05-07T05:53:12;13.00;85.50
43808;DHT22;29438;50.664;10.098;2023-05-07T05:55:37;13.00;85.10
43808;DHT22;29438;50.664;10.098;2023-05-07T05:58:03;13.00;84.90
43808;DHT22;29438;50.664;10.098;2023-05-07T06:00:29;13.20;85.20
43808;DHT22;29438;50.664;10.098;2023-05-07T06:02:55;13.20;84.70
43808;DHT22;29438;50.664;10.098;2023-05-07T06:05:20;13.20;84.40
43808;DHT22;29438;50.664;10.098;2023-05-07T06:07:46;13.20;84.70
43808;DHT22;29438;50.664;10.098;2023-05-07T06:10:11;13.20;84.50
43808;DHT22;29438;50.664;10.098;2023-05-07T06:12:37;13.00;85.40
43808;DHT22;29438;50.664;10.098;2023-05-07T06:15:03;13.00;85.60
43808;DHT22;29438;50.664;10.098;2023-05-07T06:17:28;13.00;85.60
43808;DHT22;29438;50.664;10.098;2023-05-07T06:19:54;12.90;85.30
43808;DHT22;29438;50.664;10.098;2023-05-07T06:22:19;12.80;86.00
43808;DHT22;29438;50.664;10.098;2023-05-07T06:24:45;12.90;85.50
43808;DHT22;29438;50.664;10.098;2023-05-07T06:27:11;12.80;86.00
43808;DHT22;29438;50.664;10.098;2023-05-07T06:29:36;13.20;85.90
43808;DHT22;29438;50.664;10.098;2023-05-07T06:32:10;13.20;84.90
43808;DHT22;29438;50.664;10.098;2023-05-07T06:34:36;13.00;85.10
43808;DHT22;29438;50.664;10.098;2023-05-07T06:37:02;13.10;85.20
43808;DHT22;29438;50.664;10.098;2023-05-07T06:39:28;13.20;84.80
43808;DHT22;29438;50.664;10.098;2023-05-07T06:41:53;13.20;84.50
43808;DHT22;29438;50.664;10.098;2023-05-07T06:44:19;13.30;84.40
43808;DHT22;29438;50.664;10.098;2023-05-07T06:46:44;13.40;83.90
43808;DHT22;29438;50.664;10.098;2023-05-07T06:49:10;13.40;84.10
43808;DHT22;29438;50.664;10.098;2023-05-07T06:51:36;13.50;83.80
43808;DHT22;29438;50.664;10.098;2023-05-07T06:54:01;13.60;83.60
43808;DHT22;29438;50.664;10.098;2023-05-07T06:56:27;13.30;83.90
43808;DHT22;29438;50.664;10.098;2023-05-07T06:58:52;13.60;83.50
43808;DHT22;29438;50.664;10.098;2023-05-07T07:01:18;13.90;82.40
43808;DHT22;29438;50.664;10.098;2023-05-07T07:03:43;14.30;81.20
43808;DHT22;29438;50.664;10.098;2023-05-07T07:06:09;15.10;79.20
43808;DHT22;29438;50.664;10.098;2023-05-07T07:08:34;16.70;75.50
43808;DHT22;29438;50.664;10.098;2023-05-07T07:11:00;17.10;71.40
43808;DHT22;29438;50.664;10.098;2023-05-07T07:13:25;17.30;71.80
43808;DHT22;29438;50.664;10.098;2023-05-07T07:15:52;17.50;70.00
43808;DHT22;29438;50.664;10.098;2023-05-07T07:18:18;17.90;68.60
43808;DHT22;29438;50.664;10.098;2023-05-07T07:20:44;18.40;67.50
43808;DHT22;29438;50.664;10.098;2023-05-07T07:23:09;18.60;67.70
43808;DHT22;29438;50.664;10.098;2023-05-07T07:25:35;18.80;66.00
43808;DHT22;29438;50.664;10.098;2023-05-07T07:28:01;18.50;66.10
43808;DHT22;29438;50.664;10.098;2023-05-07T07:30:26;18.70;65.70
43808;DHT22;29438;50.664;10.098;2023-05-07T07:32:52;19.30;62.10
43808;DHT22;29438;50.664;10.098;2023-05-07T07:35:18;19.20;62.00
43808;DHT22;29438;50.664;10.098;2023-05-07T07:37:43;17.90;67.80
43808;DHT22;29438;50.664;10.098;2023-05-07T07:40:10;17.30;68.40
43808;DHT22;29438;50.664;10.098;2023-05-07T07:42:36;17.90;67.50
43808;DHT22;29438;50.664;10.098;2023-05-07T07:45:02;19.20;63.70
43808;DHT22;29438;50.664;10.098;2023-05-07T07:47:28;21.40;56.30
43808;DHT22;29438;50.664;10.098;2023-05-07T07:49:53;20.40;60.60
43808;DHT22;29438;50.664;10.098;2023-05-07T07:52:19;20.40;59.80
43808;DHT22;29438;50.664;10.098;2023-05-07T07:54:45;20.70;60.10
43808;DHT22;29438;50.664;10.098;2023-05-07T07:57:11;20.00;60.40
43808;DHT22;29438;50.664;10.098;2023-05-07T07:59:36;19.20;62.10
43808;DHT22;29438;50.664;10.098;2023-05-07T08:02:02;18.60;63.90
43808;DHT22;29438;50.664;10.098;2023-05-07T08:04:27;17.70;65.70
43808;DHT22;29438;50.664;10.098;2023-05-07T08:06:53;17.50;67.60
43808;DHT22;29438;50.664;10.098;2023-05-07T08:09:19;17.20;69.00
43808;DHT22;29438;50.664;10.098;2023-05-07T08:11:45;17.10;68.70
43808;DHT22;29438;50.664;10.098;2023-05-07T08:14:11;17.40;68.80
43808;DHT22;29438;50.664;10.098;2023-05-07T08:16:37;17.20;69.00
43808;DHT22;29438;50.664;10.098;2023-05-07T08:19:02;17.50;68.20
43808;DHT22;29438;50.664;10.098;2023-05-07T08:21:28;17.90;68.00
43808;DHT22;29438;50.664;10.098;2023-05-07T08:23:53;18.00;67.40
43808;DHT22;29438;50.664;10.098;2023-05-07T08:26:19;18.00;67.50
43808;DHT22;29438;50.664;10.098;2023-05-07T08:28:44;17.70;67.30
43808;DHT22;29438;50.664;10.098;2023-05-07T08:31:10;17.60;68.70
43808;DHT22;29438;50.664;10.098;2023-05-07T08:33:35;17.80;69.00
43808;DHT22;29438;50.664;10.098;2023-05-07T08:36:01;18.00;66.60
43808;DHT22;29438;50.664;10.098;2023-05-07T08:38:26;17.90;66.80
43808;DHT22;29438;50.664;10.098;2023-05-07T08:40:52;18.10;67.50
43808;DHT22;29438;50.664;10.098;2023-05-07T08:43:18;18.10;67.10
43808;DHT22;29438;50.664;10.098;2023-05-07T08:45:45;18.20;68.00
43808;DHT22;29438;50.664;10.098;2023-05-07T08:48:17;18.40;66.20
43808;DHT22;29438;50.664;10.098;2023-05-07T08:50:43;18.10;67.30
43808;DHT22;29438;50.664;10.098;2023-05-07T08:53:08;17.70;69.30
43808;DHT22;29438;50.664;10.098;2023-05-07T08:55:34;17.40;69.50
43808;DHT22;29438;50.664;10.098;2023-05-07T08:58:00;17.20;68.00
43808;DHT22;29438;50.664;10.098;2023-05-07T09:00:26;17.20;69.60
43808;DHT22;29438;50.664;10.098;2023-05-07T09:02:53;17.40;69.30
43808;DHT22;29438;50.664;10.098;2023-05-07T09:05:19;17.50;67.90
43808;DHT22;29438;50.664;10.098;2023-05-07T09:07:45;17.30;68.80
43808;DHT22;29438;50.664;10.098;2023-05-07T09:10:11;18.20;67.20
43808;DHT22;29438;50.664;10.098;2023-05-07T09:12:37;19.10;64.80
43808;DHT22;29438;50.664;10.098;2023-05-07T09:15:03;19.30;62.60
43808;DHT22;29438;50.664;10.098;2023-05-07T09:17:29;19.70;62.00
43808;DHT22;29438;50.664;10.098;2023-05-07T09:19:54;20.20;60.20
43808;DHT22;29438;50.664;10.098;2023-05-07T09:22:20;20.50;58.30
43808;DHT22;29438;50.664;10.098;2023-05-07T09:24:50;20.20;58.70
43808;DHT22;29438;50.664;10.098;2023-05-07T09:27:16;21.00;56.70
43808;DHT22;29438;50.664;10.098;2023-05-07T09:29:43;21.20;55.20
43808;DHT22;29438;50.664;10.098;2023-05-07T09:32:09;20.80;55.10
43808;DHT22;29438;50.664;10.098;2023-05-07T09:34:35;20.60;55.60
43808;DHT22;29438;50.664;10.098;2023-05-07T09:37:02;20.60;55.70
43808;DHT22;29438;50.664;10.098;2023-05-07T09:39:45;20.90;55.80
43808;DHT22;29438;50.664;10.098;2023-05-07T09:42:11;21.10;54.30
43808;DHT22;29438;50.664;10.098;2023-05-07T09:44:38;20.60;53.70
43808;DHT22;29438;50.664;10.098;2023-05-07T09:47:07;20.40;55.80
43808;DHT22;29438;50.664;10.098;2023-05-07T09:49:35;20.10;55.60
43808;DHT22;29438;50.664;10.098;2023-05-07T09:52:05;21.00;54.90
43808;DHT22;29438;50.664;10.098;2023-05-07T09:54:32;20.70;54.30
43808;DHT22;29438;50.664;10.098;2023-05-07T09:57:00;20.30;56.10
43808;DHT22;29438;50.664;10.098;2023-05-07T09:59:28;20.70;55.30
43808;DHT22;29438;50.664;10.098;2023-05-07T10:01:57;20.70;54.70
43808;DHT22;29438;50.664;10.098;2023-05-07T10:04:25;20.70;53.90
43808;DHT22;29438;50.664;10.098;2023-05-07T10:06:51;20.70;56.10
43808;DHT22;29438;50.664;10.098;2023-05-07T10:09:17;20.20;56.90
43808;DHT22;29438;50.664;10.098;2023-05-07T10:11:43;19.70;60.40
43808;DHT22;29438;50.664;10.098;2023-05-07T10:14:10;19.70;60.20
43808;DHT22;29438;50.664;10.098;2023-05-07T10:16:36;20.10;60.40
43808;DHT22;29438;50.664;10.098;2023-05-07T10:19:03;20.00;58.10
43808;DHT22;29438;50.664;10.098;2023-05-07T10:21:30;19.40;61.50
43808;DHT22;29438;50.664;10.098;2023-05-07T10:26:32;19.70;63.30
43808;DHT22;29438;50.664;10.098;2023-05-07T10:29:03;20.20;60.70
43808;DHT22;29438;50.664;10.098;2023-05-07T10:31:54;20.20;58.80
43808;DHT22;29438;50.664;10.098;2023-05-07T10:34:28;20.10;59.40
43808;DHT22;29438;50.664;10.098;2023-05-07T10:36:55;20.20;57.90
43808;DHT22;29438;50.664;10.098;2023-05-07T10:39:22;20.00;58.50
43808;DHT22;29438;50.664;10.098;2023-05-07T10:41:48;20.10;60.30
43808;DHT22;29438;50.664;10.098;2023-05-07T10:44:27;19.90;60.20
43808;DHT22;29438;50.664;10.098;2023-05-07T10:47:09;20.00;59.50
43808;DHT22;29438;50.664;10.098;2023-05-07T10:52:30;20.10;56.90
43808;DHT22;29438;50.664;10.098;2023-05-07T10:55:19;19.80;60.80
43808;DHT22;29438;50.664;10.098;2023-05-07T10:57:46;19.80;59.90
43808;DHT22;29438;50.664;10.098;2023-05-07T11:05:24;20.00;60.30
43808;DHT22;29438;50.664;10.098;2023-05-07T11:08:01;19.40;60.80
43808;DHT22;29438;50.664;10.098;2023-05-07T11:10:53;19.10;62.40
43808;DHT22;29438;50.664;10.098;2023-05-07T11:16:27;18.70;62.30
43808;DHT22;29438;50.664;10.098;2023-05-07T11:18:54;18.90;64.20
43808;DHT22;29438;50.664;10.098;2023-05-07T11:21:40;18.80;65.80
43808;DHT22;29438;50.664;10.098;2023-05-07T11:24:09;18.70;64.60
43808;DHT22;29438;50.664;10.098;2023-05-07T11:26:50;18.70;63.80
43808;DHT22;29438;50.664;10.098;2023-05-07T11:29:20;18.90;64.90
43808;DHT22;29438;50.664;10.098;2023-05-07T11:31:53;18.90;65.00
43808;DHT22;29438;50.664;10.098;2023-05-07T11:34:23;18.90;63.60
43808;DHT22;29438;50.664;10.098;2023-05-07T11:36:49;19.00;61.40
43808;DHT22;29438;50.664;10.098;2023-05-07T11:41:50;19.00;61.60
43808;DHT22;29438;50.664;10.098;2023-05-07T11:44:15;18.80;62.80
43808;DHT22;29438;50.664;10.098;2023-05-07T11:46:44;18.60;62.20
43808;DHT22;29438;50.664;10.098;2023-05-07T11:49:10;18.80;63.60
43808;DHT22;29438;50.664;10.098;2023-05-07T11:51:36;19.20;60.80
43808;DHT22;29438;50.664;10.098;2023-05-07T11:54:04;19.80;60.60
43808;DHT22;29438;50.664;10.098;2023-05-07T11:56:34;20.20;60.60
43808;DHT22;29438;50.664;10.098;2023-05-07T11:59:00;19.70;60.10
43808;DHT22;29438;50.664;10.098;2023-05-07T12:01:26;19.20;60.60
43808;DHT22;29438;50.664;10.098;2023-05-07T12:03:51;19.30;61.50
43808;DHT22;29438;50.664;10.098;2023-05-07T12:06:18;19.20;60.80
43808;DHT22;29438;50.664;10.098;2023-05-07T12:08:45;19.50;61.40
43808;DHT22;29438;50.664;10.098;2023-05-07T12:11:14;19.50;59.80
43808;DHT22;29438;50.664;10.098;2023-05-07T12:13:41;19.70;61.20
43808;DHT22;29438;50.664;10.098;2023-05-07T12:16:07;19.40;59.80
43808;DHT22;29438;50.664;10.098;2023-05-07T12:18:34;19.20;65.00
43808;DHT22;29438;50.664;10.098;2023-05-07T12:21:00;19.40;63.50
43808;DHT22;29438;50.664;10.098;2023-05-07T12:23:26;19.30;60.90
43808;DHT22;29438;50.664;10.098;2023-05-07T12:25:52;19.40;60.20
43808;DHT22;29438;50.664;10.098;2023-05-07T12:28:18;19.20;61.60
43808;DHT22;29438;50.664;10.098;2023-05-07T12:30:46;19.00;61.30
43808;DHT22;29438;50.664;10.098;2023-05-07T12:33:11;19.20;61.50
43808;DHT22;29438;50.664;10.098;2023-05-07T12:35:41;19.40;61.00
43808;DHT22;29438;50.664;10.098;2023-05-07T12:38:14;19.30;61.40
43808;DHT22;29438;50.664;10.098;2023-05-07T12:40:46;19.00;64.10
43808;DHT22;29438;50.664;10.098;2023-05-07T12:45:42;18.80;63.00
43808;DHT22;29438;50.664;10.098;2023-05-07T12:48:10;18.70;64.00
43808;DHT22;29438;50.664;10.098;2023-05-07T12:50:36;18.20;63.90
43808;DHT22;29438;50.664;10.098;2023-05-07T12:53:04;18.20;65.20
43808;DHT22;29438;50.664;10.098;2023-05-07T12:55:31;18.20;66.90
43808;DHT22;29438;50.664;10.098;2023-05-07T12:58:00;17.80;67.60
43808;DHT22;29438;50.664;10.098;2023-05-07T13:00:52;18.00;67.50
43808;DHT22;29438;50.664;10.098;2023-05-07T13:03:26;18.50;68.10
43808;DHT22;29438;50.664;10.098;2023-05-07T13:05:52;18.40;64.80
43808;DHT22;29438;50.664;10.098;2023-05-07T13:10:50;18.70;67.00
43808;DHT22;29438;50.664;10.098;2023-05-07T13:13:16;18.60;66.00
43808;DHT22;29438;50.664;10.098;2023-05-07T13:15:41;18.50;66.80
43808;DHT22;29438;50.664;10.098;2023-05-07T13:18:06;18.80;66.00
43808;DHT22;29438;50.664;10.098;2023-05-07T13:20:32;18.30;65.80
43808;DHT22;29438;50.664;10.098;2023-05-07T13:22:57;18.30;67.50
43808;DHT22;29438;50.664;10.098;2023-05-07T13:25:23;18.40;67.70
43808;DHT22;29438;50.664;10.098;2023-05-07T13:27:48;18.40;66.80
43808;DHT22;29438;50.664;10.098;2023-05-07T13:30:14;18.00;67.10
43808;DHT22;29438;50.664;10.098;2023-05-07T13:32:39;17.70;67.80
43808;DHT22;29438;50.664;10.098;2023-05-07T13:35:05;17.70;67.80
43808;DHT22;29438;50.664;10.098;2023-05-07T13:37:31;17.70;66.80
43808;DHT22;29438;50.664;10.098;2023-05-07T13:39:56;17.90;68.60
43808;DHT22;29438;50.664;10.098;2023-05-07T13:42:22;18.10;68.20
43808;DHT22;29438;50.664;10.098;2023-05-07T13:44:48;18.20;68.10
43808;DHT22;29438;50.664;10.098;2023-05-07T13:47:13;18.40;68.00
43808;DHT22;29438;50.664;10.098;2023-05-07T13:49:39;18.50;67.20
43808;DHT22;29438;50.664;10.098;2023-05-07T13:52:05;18.60;67.70
43808;DHT22;29438;50.664;10.098;2023-05-07T13:54:30;18.70;66.90
43808;DHT22;29438;50.664;10.098;2023-05-07T13:56:56;18.40;66.20
43808;DHT22;29438;50.664;10.098;2023-05-07T13:59:21;18.60;65.20
43808;DHT22;29438;50.664;10.098;2023-05-07T14:01:47;18.40;66.70
43808;DHT22;29438;50.664;10.098;2023-05-07T14:04:13;18.00;65.90
43808;DHT22;29438;50.664;10.098;2023-05-07T14:06:38;17.80;67.20
43808;DHT22;29438;50.664;10.098;2023-05-07T14:09:04;17.70;65.40
43808;DHT22;29438;50.664;10.098;2023-05-07T14:11:29;17.50;65.70
43808;DHT22;29438;50.664;10.098;2023-05-07T14:13:55;17.70;67.30
43808;DHT22;29438;50.664;10.098;2023-05-07T14:16:22;17.60;66.60
43808;DHT22;29438;50.664;10.098;2023-05-07T14:18:47;17.60;67.50
43808;DHT22;29438;50.664;10.098;2023-05-07T14:21:13;17.70;66.50
43808;DHT22;29438;50.664;10.098;2023-05-07T14:23:39;17.80;65.80
43808;DHT22;29438;50.664;10.098;2023-05-07T14:26:04;18.00;64.70
43808;DHT22;29438;50.664;10.098;2023-05-07T14:28:30;18.10;63.50
43808;DHT22;29438;50.664;10.098;2023-05-07T14:30:56;18.10;63.90
43808;DHT22;29438;50.664;10.098;2023-05-07T14:33:21;18.10;64.60
43808;DHT22;29438;50.664;10.098;2023-05-07T14:35:47;18.10;63.70
43808;DHT22;29438;50.664;10.098;2023-05-07T14:38:14;18.00;62.20
43808;DHT22;29438;50.664;10.098;2023-05-07T14:40:41;17.90;63.00
43808;DHT22;29438;50.664;10.098;2023-05-07T14:43:06;18.20;62.90
43808;DHT22;29438;50.664;10.098;2023-05-07T14:45:32;18.00;64.30
43808;DHT22;29438;50.664;10.098;2023-05-07T14:47:57;18.00;64.10
43808;DHT22;29438;50.664;10.098;2023-05-07T14:50:23;18.20;64.40
43808;DHT22;29438;50.664;10.098;2023-05-07T14:52:48;18.40;62.40
43808;DHT22;29438;50.664;10.098;2023-05-07T14:55:14;18.30;61.20
43808;DHT22;29438;50.664;10.098;2023-05-07T14:57:39;18.00;61.50
43808;DHT22;29438;50.664;10.098;2023-05-07T15:00:06;17.80;63.30
43808;DHT22;29438;50.664;10.098;2023-05-07T15:02:32;17.80;63.00
43808;DHT22;29438;50.664;10.098;2023-05-07T15:04:59;17.80;62.40
43808;DHT22;29438;50.664;10.098;2023-05-07T15:07:24;17.90;62.30
43808;DHT22;29438;50.664;10.098;2023-05-07T15:09:50;17.70;63.50
43808;DHT22;29438;50.664;10.098;2023-05-07T15:12:16;17.50;64.10
43808;DHT22;29438;50.664;10.098;2023-05-07T15:14:41;17.70;66.50
43808;DHT22;29438;50.664;10.098;2023-05-07T15:17:07;17.70;64.10
43808;DHT22;29438;50.664;10.098;2023-05-07T15:19:33;17.50;63.80
43808;DHT22;29438;50.664;10.098;2023-05-07T15:21:59;17.40;64.00
43808;DHT22;29438;50.664;10.098;2023-05-07T15:24:28;17.30;63.90
43808;DHT22;29438;50.664;10.098;2023-05-07T15:26:54;17.20;64.20
43808;DHT22;29438;50.664;10.098;2023-05-07T15:29:19;17.20;65.70
43808;DHT22;29438;50.664;10.098;2023-05-07T15:31:46;17.20;65.40